CYMU

Umiujaq Airport

Umiujaq, Quebec, Canada
METAR CYMU 152200Z 22016G22KT 14SM -SN DRSN OVC011 M05/M06 A2987 RMK ST8 LAST STFD OBS/NEXT 161300UTC SLP123
Observed Flight Rules
Dec-15 @ 22:00 UTC (15 hours ago) Marginal Visual Flight Rules
Wind Visibility Clouds Conditions
220° at 16 knots
 Gusting to 22 knots
14 miles
  • Overcast at 1,100' AGL
  • Light Snow
  • Low drifting
  • Snow
Temperatures Readings
Current -5°C / 23°F
Dewpoint -6°C / 21°F
Humidity 93%
Altimeter 29.87" Hg
Pressure 1012.3 hPa
Elevation 71
METAR CYMU 152200Z 22016G22KT 14SM -SN DRSN OVC011 M05/M06 A2987 RMK ST8 LAST STFD OBS/NEXT 161300UTC SLP123
Observed Flight Rules
Dec-15 @ 22:00 UTC
(15 hours ago)
MVFR
Wind Visibility
220° at 16 knots
 Gusting to 22 knots
14 miles
Clouds
  • Overcast at 1,100' AGL
Conditions
  • Light Snow
  • Low drifting
  • Snow
Temperature Dewpoint
-5°C / 23°F -6°C / 21°F
Humidity Altimeter Pressure
93% 29.87" Hg 1012.3 hPa